Time;durP1;ratioP1;P1;durP2;ratioP2;P2;SDS_P1;SDS_P2;PMS_P1;PMS_P2;Temp;Humidity;BMP_temperature;BMP_pressure;BME280_temperature;BME280_humidity;BME280_pressure;Samples;Min_cycle;Max_cycle;Signal;HPM_P1;HPM_P2
2022/12/04 00:01:10;;;;;;;;;;;;;;;-0.51;100.00;101340.66;4967026;28;19956;-71
2022/12/04 00:03:36;;;;;;;;;;;;;;;-0.77;100.00;101281.63;4966910;28;20525;-71
2022/12/04 00:06:05;;;;;;;;;;;;;;;-0.72;100.00;101308.47;4966604;28;19914;-72
2022/12/04 00:08:31;;;;;;;;;;;;;;;-0.92;100.00;101285.84;4966215;28;19921;-71
2022/12/04 00:10:56;;;;;;;;;;;;;;;-0.79;100.00;101335.09;4967226;28;19918;-71
2022/12/04 00:13:21;;;;;;;;;;;;;;;-0.70;100.00;101372.19;4967556;28;20398;-72
2022/12/04 00:15:46;;;;;;;;;;;;;;;-0.61;100.00;101377.88;4967226;28;20338;-72
2022/12/04 00:18:12;;;;;;;;;;;;;;;-0.95;100.00;101325.31;4967301;28;19980;-71
2022/12/04 00:20:38;;;;;;;;;;;;;;;-0.77;100.00;101377.78;4967115;28;19918;-71
2022/12/04 00:23:03;;;;;;;;;;;;;;;-0.80;100.00;101373.53;4967645;28;19914;-71
2022/12/04 00:25:29;;;;;;;;;;;;;;;-0.69;100.00;101401.88;4967136;28;19919;-71
2022/12/04 00:27:54;;;;;;;;;;;;;;;-0.67;100.00;101400.03;4967321;28;19996;-71
2022/12/04 00:30:19;;;;;;;;;;;;;;;-0.69;100.00;101414.97;4967141;28;20376;-71
2022/12/04 00:32:45;;;;;;;;;;;;;;;-0.60;100.00;101430.28;4965816;28;19941;-71
2022/12/04 00:35:10;;;;;;;;;;;;;;;-0.60;100.00;101425.03;4965806;28;19968;-71
2022/12/04 00:37:35;;;;;;;;;;;;;;;-0.68;100.00;101417.53;4967296;28;19914;-72
2022/12/04 00:40:00;;;;;;;;;;;;;;;-0.66;100.00;101441.94;4967554;28;20290;-71
2022/12/04 00:42:26;;;;;;;;;;;;;;;-0.66;100.00;101447.19;4965790;28;20478;-71
2022/12/04 00:44:51;;;;;;;;;;;;;;;-0.66;100.00;101459.41;4966980;28;20029;-71
2022/12/04 00:47:16;;;;;;;;;;;;;;;-0.59;100.00;101475.72;4966719;28;19981;-71
2022/12/04 00:49:41;;;;;;;;;;;;;;;-0.56;100.00;101471.19;4966488;28;19914;-71
2022/12/04 00:52:07;;;;;;;;;;;;;;;-0.70;100.00;101434.28;4950353;28;19921;-72
2022/12/04 00:54:32;;;;;;;;;;;;;;;-0.61;100.00;101469.69;4969909;28;19918;-71
2022/12/04 00:56:57;;;;;;;;;;;;;;;-0.79;100.00;101445.22;4970684;28;20362;-71
2022/12/04 00:59:23;;;;;;;;;;;;;;;-0.65;100.00;101485.56;4969548;28;19921;-71
2022/12/04 01:01:48;;;;;;;;;;;;;;;-0.61;100.00;101499.38;4970320;28;19914;-71
2022/12/04 01:04:13;;;;;;;;;;;;;;;-0.57;100.00;101498.31;4970841;28;20367;-71
2022/12/04 01:06:38;;;;;;;;;;;;;;;-0.49;100.00;101506.69;4970392;28;19941;-71
2022/12/04 01:09:04;;;;;;;;;;;;;;;-0.50;100.00;101502.34;4969289;28;19989;-72
2022/12/04 01:11:29;;;;;;;;;;;;;;;-0.57;100.00;101485.22;4970203;28;19922;-71
2022/12/04 01:13:55;;;;;;;;;;;;;;;-0.69;100.00;101477.94;4969584;28;19909;-72
2022/12/04 01:16:22;;;;;;;;;;;;;;;-0.56;100.00;101509.66;4970222;28;20383;-72
2022/12/04 01:18:47;;;;;;;;;;;;;;;-0.48;100.00;101526.75;4970299;28;19922;-72
2022/12/04 01:21:13;;;;;;;;;;;;;;;-0.51;100.00;101532.16;4970343;28;20434;-71
2022/12/04 01:23:39;;;;;;;;;;;;;;;-0.55;100.00;101527.13;4969998;28;19921;-71
2022/12/04 01:26:04;;;;;;;;;;;;;;;-0.48;100.00;101549.50;4970126;28;19910;-71
2022/12/04 01:28:29;;;;;;;;;;;;;;;-0.56;100.00;101531.50;4970116;28;19914;-71
2022/12/04 01:31:02;;;;;;;;;;;;;;;-0.53;100.00;101548.88;4968521;28;19917;-71
2022/12/04 01:33:28;;;;;;;;;;;;;;;-0.53;100.00;101554.13;4970020;28;20009;-71
2022/12/04 01:35:55;;;;;;;;;;;;;;;-0.50;100.00;101567.94;4969880;28;20361;-71
2022/12/04 01:38:20;;;;;;;;;;;;;;;-0.44;100.00;101578.16;4968997;28;20280;-71
2022/12/04 01:40:46;;;;;;;;;;;;;;;-0.47;100.00;101562.56;4968691;28;19938;-72
2022/12/04 01:43:11;;;;;;;;;;;;;;;-0.41;100.00;101566.66;4968829;28;19918;-71
2022/12/04 01:45:41;;;;;;;;;;;;;;;-0.40;100.00;101570.13;4969831;28;19918;-71
2022/12/04 01:48:14;;;;;;;;;;;;;;;-0.35;100.00;101576.88;4968264;28;19925;-72
2022/12/04 01:50:41;;;;;;;;;;;;;;;-0.54;100.00;101540.16;4967609;28;19920;-71
2022/12/04 01:53:06;;;;;;;;;;;;;;;-0.57;100.00;101544.69;4969001;28;19941;-71
2022/12/04 01:55:32;;;;;;;;;;;;;;;-0.51;100.00;101555.75;4969274;28;19918;-71
2022/12/04 01:57:57;;;;;;;;;;;;;;;-0.52;100.00;101556.66;4969491;28;19933;-71
2022/12/04 02:00:23;;;;;;;;;;;;;;;-0.53;100.00;101565.47;4969532;28;20388;-71
2022/12/04 02:02:48;;;;;;;;;;;;;;;-0.45;100.00;101589.56;4969117;28;20040;-71
2022/12/04 02:05:15;;;;;;;;;;;;;;;-0.41;100.00;101584.19;4968647;28;19917;-72
2022/12/04 02:07:42;;;;;;;;;;;;;;;-0.45;100.00;101565.94;4969401;28;19914;-71
2022/12/04 02:10:07;;;;;;;;;;;;;;;-0.32;100.00;101589.84;4969036;28;19925;-72
2022/12/04 02:12:33;;;;;;;;;;;;;;;-0.47;100.00;101559.94;4967411;28;19914;-72
2022/12/04 02:15:16;;;;;;;;;;;;;;;-0.37;100.00;101576.09;4969222;28;19921;-71
2022/12/04 02:17:56;;;;;;;;;;;;;;;-0.45;100.00;101565.94;4969442;28;19917;-71
2022/12/04 02:20:23;;;;;;;;;;;;;;;-0.40;100.00;101570.97;4968964;28;20407;-71
2022/12/04 02:22:49;;;;;;;;;;;;;;;-0.49;100.00;101548.66;4968107;28;19917;-71
2022/12/04 02:25:30;;;;;;;;;;;;;;;-0.31;100.00;101573.16;4969006;28;20379;-72
2022/12/04 02:28:03;;;;;;;;;;;;;;;-0.43;100.00;101552.75;4969155;28;19922;-71
2022/12/04 02:30:29;;;;;;;;;;;;;;;-0.52;100.00;101545.31;4968471;28;19955;-71
2022/12/04 02:32:56;;;;;;;;;;;;;;;-0.56;100.00;101552.50;4968827;28;20001;-71
2022/12/04 02:35:27;;;;;;;;;;;;;;;-0.56;100.00;101568.25;4967562;28;19969;-71
2022/12/04 02:37:55;;;;;;;;;;;;;;;-0.46;100.00;101590.50;4968864;28;19940;-72
2022/12/04 02:40:35;;;;;;;;;;;;;;;-0.43;100.00;101598.22;4968591;28;19920;-71
2022/12/04 02:43:09;;;;;;;;;;;;;;;-0.32;100.00;101610.00;4968898;28;19914;-71
2022/12/04 02:45:41;;;;;;;;;;;;;;;-0.27;100.00;101619.34;4967027;28;19992;-71
2022/12/04 02:48:07;;;;;;;;;;;;;;;-0.31;100.00;101594.16;4967007;28;19918;-71
2022/12/04 02:50:36;;;;;;;;;;;;;;;-0.28;100.00;101601.03;4967876;28;19937;-71
2022/12/04 02:53:11;;;;;;;;;;;;;;;-0.31;100.00;101583.66;4948987;28;20394;-71
2022/12/04 02:55:42;;;;;;;;;;;;;;;-0.29;100.00;101566.09;4967282;28;20475;-71
2022/12/04 02:58:28;;;;;;;;;;;;;;;-0.25;100.00;101578.16;4968158;28;19920;-72
2022/12/04 03:00:54;;;;;;;;;;;;;;;-0.23;100.00;101570.22;4966028;28;20382;-72
2022/12/04 03:03:22;;;;;;;;;;;;;;;-0.33;100.00;101540.94;4968241;28;19972;-72
2022/12/04 03:05:59;;;;;;;;;;;;;;;-0.27;100.00;101558.16;4966713;28;19914;-71
2022/12/04 03:08:45;;;;;;;;;;;;;;;-0.19;100.00;101560.41;4967852;28;19914;-71
2022/12/04 03:11:10;;;;;;;;;;;;;;;-0.26;100.00;101547.59;4961590;28;19918;-71
2022/12/04 03:13:35;;;;;;;;;;;;;;;-0.34;100.00;101541.00;4950401;28;20818;-71
2022/12/04 03:16:14;;;;;;;;;;;;;;;-0.22;100.00;101550.91;4966240;28;19918;-71
2022/12/04 03:18:42;;;;;;;;;;;;;;;-0.21;100.00;101555.25;4967246;28;20334;-71
2022/12/04 03:21:09;;;;;;;;;;;;;;;-0.24;100.00;101547.50;4966159;28;19910;-71
2022/12/04 03:23:53;;;;;;;;;;;;;;;-0.31;100.00;101546.09;4967245;28;19989;-71
2022/12/04 03:26:19;;;;;;;;;;;;;;;-0.30;100.00;101558.31;4967611;28;19917;-71
2022/12/04 03:28:44;;;;;;;;;;;;;;;-0.23;100.00;101562.34;4967361;28;19996;-72
2022/12/04 03:31:09;;;;;;;;;;;;;;;-0.25;100.00;101565.03;4967173;28;19944;-71
2022/12/04 03:33:43;;;;;;;;;;;;;;;-0.31;100.00;101553.97;4966672;28;20331;-71
2022/12/04 03:36:15;;;;;;;;;;;;;;;-0.24;100.00;101565.88;4966807;28;19992;-71
2022/12/04 03:38:40;;;;;;;;;;;;;;;-0.31;100.00;101562.69;4967316;28;20459;-71
2022/12/04 03:41:11;;;;;;;;;;;;;;;-0.24;100.00;101592.09;4967202;28;20005;-71
2022/12/04 03:43:59;;;;;;;;;;;;;;;-0.22;100.00;101587.66;4966118;28;20039;-71
2022/12/04 03:46:37;;;;;;;;;;;;;;;-0.22;100.00;101593.72;4967234;28;19913;-71
2022/12/04 03:49:02;;;;;;;;;;;;;;;-0.24;100.00;101594.72;4959495;28;20311;-71
2022/12/04 03:51:39;;;;;;;;;;;;;;;-0.34;100.00;101593.47;4967150;28;19918;-71
2022/12/04 03:54:13;;;;;;;;;;;;;;;-0.18;100.00;101630.34;4960155;28;19921;-71
2022/12/04 03:56:42;;;;;;;;;;;;;;;-0.11;100.00;101629.16;4966789;28;19914;-71
2022/12/04 03:59:10;;;;;;;;;;;;;;;-0.12;100.00;101620.41;4967420;28;20403;-71
2022/12/04 04:01:39;;;;;;;;;;;;;;;-0.33;100.00;101592.53;4966894;28;19921;-71
2022/12/04 04:04:08;;;;;;;;;;;;;;;-0.25;100.00;101611.41;4965909;28;19914;-71
2022/12/04 04:06:37;;;;;;;;;;;;;;;-0.12;100.00;101628.28;4966631;28;19921;-71
2022/12/04 04:09:07;;;;;;;;;;;;;;;-0.17;100.00;101616.31;4967128;28;19917;-72
2022/12/04 04:11:40;;;;;;;;;;;;;;;-0.13;100.00;101621.34;4966635;28;20287;-72
2022/12/04 04:25:16;;;;;;;;;;;;;;;-0.23;100.00;101609.56;4966910;28;19968;-71
2022/12/04 04:27:49;;;;;;;;;;;;;;;-0.16;100.00;101618.00;4968794;28;19920;-72
2022/12/04 04:30:14;;;;;;;;;;;;;;;-0.27;100.00;101605.38;4970874;28;20375;-72
2022/12/04 04:32:44;;;;;;;;;;;;;;;-0.24;100.00;101620.97;4970617;28;19968;-71
2022/12/04 04:35:32;;;;;;;;;;;;;;;-0.19;100.00;101637.34;4970776;28;19918;-71
2022/12/04 04:38:16;;;;;;;;;;;;;;;-0.13;100.00;101649.38;4972565;28;20283;-72
2022/12/04 04:40:47;;;;;;;;;;;;;;;-0.24;100.00;101634.94;4970300;28;19925;-71
2022/12/04 04:43:20;;;;;;;;;;;;;;;-0.16;100.00;101660.00;4970794;28;19980;-71
2022/12/04 04:45:47;;;;;;;;;;;;;;;-0.21;100.00;101657.59;4970337;28;19914;-71
2022/12/04 04:48:22;;;;;;;;;;;;;;;-0.14;100.00;101676.53;4969254;28;20294;-71
2022/12/04 04:50:48;;;;;;;;;;;;;;;-0.10;100.00;101681.56;4970099;28;19925;-71
2022/12/04 04:53:19;;;;;;;;;;;;;;;-0.13;100.00;101681.72;4968638;28;19921;-70
2022/12/04 04:55:44;;;;;;;;;;;;;;;-0.01;100.00;101698.66;4970391;28;19925;-72
2022/12/04 04:58:14;;;;;;;;;;;;;;;-0.01;100.00;101696.03;4970447;28;19913;-71
2022/12/04 05:00:43;;;;;;;;;;;;;;;0.01;100.00;101698.59;4968766;28;20311;-71
2022/12/04 05:03:09;;;;;;;;;;;;;;;-0.03;100.00;101703.97;4970491;28;19924;-71
2022/12/04 05:05:34;;;;;;;;;;;;;;;-0.01;100.00;101712.63;4969944;28;20000;-72
2022/12/04 05:07:59;;;;;;;;;;;;;;;-0.10;100.00;101702.56;4969063;28;20378;-71
2022/12/04 05:10:24;;;;;;;;;;;;;;;-0.08;100.00;101711.22;4970144;28;19960;-71
2022/12/04 05:12:50;;;;;;;;;;;;;;;-0.02;100.00;101725.84;4968861;28;19926;-71
2022/12/04 05:15:15;;;;;;;;;;;;;;;-0.04;100.00;101718.03;4970059;28;19921;-71
2022/12/04 05:17:40;;;;;;;;;;;;;;;0.07;100.00;101732.44;4968458;28;20005;-71
2022/12/04 05:20:06;;;;;;;;;;;;;;;0.05;100.00;101722.03;4970154;28;19970;-71
2022/12/04 05:22:32;;;;;;;;;;;;;;;0.10;100.00;101727.91;4969241;28;19918;-71
2022/12/04 05:24:58;;;;;;;;;;;;;;;0.07;100.00;101714.06;4969933;28;19914;-71
2022/12/04 05:27:24;;;;;;;;;;;;;;;-0.03;100.00;101709.22;4969875;28;19914;-71
2022/12/04 05:29:53;;;;;;;;;;;;;;;-0.01;100.00;101712.63;4968315;28;19914;-72
2022/12/04 05:32:18;;;;;;;;;;;;;;;0.12;100.00;101727.84;4968431;28;20381;-72
2022/12/04 05:34:46;;;;;;;;;;;;;;;0.06;100.00;101715.84;4968337;28;19994;-71
2022/12/04 05:37:11;;;;;;;;;;;;;;;0.05;100.00;101726.41;4968050;28;19921;-71
2022/12/04 05:39:36;;;;;;;;;;;;;;;0.06;100.00;101728.13;4969187;28;20291;-72
2022/12/04 05:42:01;;;;;;;;;;;;;;;0.06;100.00;101736.84;4969433;28;19945;-71
2022/12/04 05:44:27;;;;;;;;;;;;;;;0.15;100.00;101735.56;4968934;28;20298;-71
2022/12/04 05:46:52;;;;;;;;;;;;;;;0.18;100.00;101738.03;4969183;28;19972;-71
2022/12/04 05:49:17;;;;;;;;;;;;;;;0.15;100.00;101727.69;4969635;28;19969;-71
2022/12/04 05:51:42;;;;;;;;;;;;;;;0.12;100.00;101726.06;4967797;28;20431;-71
2022/12/04 05:54:08;;;;;;;;;;;;;;;0.13;100.00;101727.75;4969561;28;19961;-71
2022/12/04 05:56:33;;;;;;;;;;;;;;;0.19;100.00;101732.75;4969159;28;19914;-71
2022/12/04 05:58:58;;;;;;;;;;;;;;;0.11;100.00;101726.13;4969437;28;19922;-71
2022/12/04 06:01:23;;;;;;;;;;;;;;;0.17;100.00;101725.84;4969212;28;19961;-71
2022/12/04 06:03:49;;;;;;;;;;;;;;;0.20;100.00;101723.06;4968872;28;20268;-71
2022/12/04 06:06:15;;;;;;;;;;;;;;;0.28;100.00;101739.34;4968967;28;20446;-71
2022/12/04 06:08:40;;;;;;;;;;;;;;;0.36;100.00;101742.44;4967395;28;20016;-71
2022/12/04 06:11:12;;;;;;;;;;;;;;;0.41;100.00;101740.44;4968709;28;20026;-71
2022/12/04 06:13:39;;;;;;;;;;;;;;;0.38;100.00;101731.88;4969024;28;20367;-71
2022/12/04 06:16:04;;;;;;;;;;;;;;;0.39;100.00;101731.78;4968776;28;19916;-71
2022/12/04 06:18:29;;;;;;;;;;;;;;;0.39;100.00;101734.41;4968876;28;19913;-72
2022/12/04 06:20:58;;;;;;;;;;;;;;;0.34;100.00;101711.91;4967485;28;20095;-71
2022/12/04 06:23:23;;;;;;;;;;;;;;;0.40;100.00;101728.25;4969134;28;20638;-71
2022/12/04 06:25:48;;;;;;;;;;;;;;;0.45;100.00;101724.56;4968666;28;19922;-71
2022/12/04 06:28:13;;;;;;;;;;;;;;;0.39;100.00;101721.28;4967276;28;20355;-71
2022/12/04 06:30:39;;;;;;;;;;;;;;;0.35;100.00;101730.25;4966233;28;19944;-71
2022/12/04 06:33:04;;;;;;;;;;;;;;;0.34;100.00;101717.19;4963767;28;19956;-71
2022/12/04 06:35:29;;;;;;;;;;;;;;;0.33;100.00;101726.84;4968354;28;19914;-71
2022/12/04 06:37:54;;;;;;;;;;;;;;;0.38;100.00;101724.84;4968419;28;19921;-71
2022/12/04 06:40:20;;;;;;;;;;;;;;;0.26;100.00;101725.44;4967909;28;19910;-71
2022/12/04 06:42:45;;;;;;;;;;;;;;;0.38;100.00;101734.50;4967741;28;19914;-71
2022/12/04 06:45:10;;;;;;;;;;;;;;;0.48;100.00;101759.41;4968128;28;19918;-71
2022/12/04 06:47:35;;;;;;;;;;;;;;;0.34;100.00;101736.41;4969427;28;20016;-71
2022/12/04 06:50:02;;;;;;;;;;;;;;;0.34;100.00;101749.53;4966104;28;20362;-71
2022/12/04 06:52:27;;;;;;;;;;;;;;;0.40;100.00;101762.41;4973030;28;19957;-72
2022/12/04 06:54:53;;;;;;;;;;;;;;;0.41;100.00;101758.84;4967679;28;19945;-71
2022/12/04 06:57:18;;;;;;;;;;;;;;;0.43;100.00;101758.78;4967830;28;19961;-72
2022/12/04 06:59:43;;;;;;;;;;;;;;;0.40;100.00;101758.94;4967863;28;20025;-71
2022/12/04 07:02:09;;;;;;;;;;;;;;;0.51;100.00;101767.13;4968073;28;19926;-71
2022/12/04 07:04:34;;;;;;;;;;;;;;;0.53;100.00;101765.28;4968090;28;19910;-71
2022/12/04 07:06:59;;;;;;;;;;;;;;;0.53;100.00;101764.44;4968382;28;19920;-71
2022/12/04 07:09:25;;;;;;;;;;;;;;;0.58;100.00;101765.06;4967775;28;20446;-71
2022/12/04 07:11:51;;;;;;;;;;;;;;;0.59;100.00;101764.16;4967366;28;19929;-71
2022/12/04 07:14:17;;;;;;;;;;;;;;;0.51;100.00;101756.63;4967864;28;19924;-71
2022/12/04 07:16:42;;;;;;;;;;;;;;;0.61;100.00;101775.47;4967849;28;19925;-72
2022/12/04 07:19:09;;;;;;;;;;;;;;;0.69;100.00;101762.78;4967887;28;19914;-71
2022/12/04 07:21:34;;;;;;;;;;;;;;;0.72;100.00;101760.00;4975073;28;20401;-71
2022/12/04 07:24:00;;;;;;;;;;;;;;;0.63;100.00;101752.56;4967575;28;19914;-71
2022/12/04 07:26:25;;;;;;;;;;;;;;;0.74;100.00;101763.41;4967533;28;19913;-71
2022/12/04 07:28:52;;;;;;;;;;;;;;;0.67;100.00;101743.59;4967440;28;19925;-71
2022/12/04 07:31:18;;;;;;;;;;;;;;;0.88;100.00;101764.53;4967010;28;20025;-71
2022/12/04 07:33:44;;;;;;;;;;;;;;;0.80;100.00;101741.25;4967590;28;19976;-71
2022/12/04 07:36:11;;;;;;;;;;;;;;;0.81;100.00;101743.78;4966159;28;20391;-71
2022/12/04 07:38:36;;;;;;;;;;;;;;;0.87;100.00;101755.78;4967337;28;19922;-71
2022/12/04 07:41:03;;;;;;;;;;;;;;;0.93;100.00;101758.09;4967212;28;19914;-71
2022/12/04 07:43:28;;;;;;;;;;;;;;;0.99;100.00;101763.06;4967249;28;19968;-71
2022/12/04 07:45:54;;;;;;;;;;;;;;;1.01;100.00;101760.38;4967172;28;19914;-71
2022/12/04 07:48:19;;;;;;;;;;;;;;;1.00;100.00;101756.03;4967127;28;19917;-71
2022/12/04 07:50:45;;;;;;;;;;;;;;;0.99;100.00;101751.72;4967051;28;20276;-71
2022/12/04 07:53:10;;;;;;;;;;;;;;;1.00;100.00;101754.25;4967540;28;20391;-72
2022/12/04 07:55:35;;;;;;;;;;;;;;;1.00;100.00;101746.34;4973544;28;19922;-71
2022/12/04 07:58:01;;;;;;;;;;;;;;;1.19;100.00;101769.09;4966230;28;20733;-71
2022/12/04 08:00:26;;;;;;;;;;;;;;;1.10;100.00;101754.66;4965770;28;19949;-71
2022/12/04 08:02:52;;;;;;;;;;;;;;;1.11;100.00;101756.34;4966291;28;20363;-71
2022/12/04 08:05:17;;;;;;;;;;;;;;;1.15;100.00;101739.50;4967112;28;19936;-71
2022/12/04 08:07:42;;;;;;;;;;;;;;;1.21;100.00;101754.94;4965906;28;19921;-72
2022/12/04 08:10:08;;;;;;;;;;;;;;;1.32;100.00;101759.69;4973356;28;19941;-72
2022/12/04 08:12:34;;;;;;;;;;;;;;;1.36;100.00;101755.97;4966768;28;20008;-71
2022/12/04 08:14:59;;;;;;;;;;;;;;;1.31;100.00;101736.94;4967077;28;19964;-72
2022/12/04 08:17:24;;;;;;;;;;;;;;;1.35;100.00;101732.34;4965732;28;19910;-74
2022/12/04 08:19:50;;;;;;;;;;;;;;;1.39;100.00;101744.44;4967062;28;19914;-72
2022/12/04 08:22:15;;;;;;;;;;;;;;;1.34;100.00;101728.88;4965923;28;20688;-71
2022/12/04 08:24:40;;;;;;;;;;;;;;;1.50;100.00;101742.09;4966836;28;20036;-71
2022/12/04 08:27:06;;;;;;;;;;;;;;;1.45;100.00;101723.03;4966883;28;20544;-71
2022/12/04 08:29:31;;;;;;;;;;;;;;;1.63;100.00;101722.09;4963500;28;19914;-71
2022/12/04 08:31:57;;;;;;;;;;;;;;;1.64;100.00;101728.22;4961754;28;20353;-71
2022/12/04 08:34:22;;;;;;;;;;;;;;;1.54;100.00;101705.94;4966300;28;19929;-71
2022/12/04 08:36:47;;;;;;;;;;;;;;;1.54;100.00;101696.25;4966413;28;19941;-72
2022/12/04 08:39:12;;;;;;;;;;;;;;;1.58;100.00;101708.31;4967116;28;20012;-70
2022/12/04 08:41:38;;;;;;;;;;;;;;;1.60;100.00;101705.63;4965766;28;19956;-72
2022/12/04 08:44:03;;;;;;;;;;;;;;;1.63;100.00;101698.38;4949548;28;19968;-71
2022/12/04 08:46:29;;;;;;;;;;;;;;;1.62;100.00;101693.22;4966619;28;19998;-71
2022/12/04 08:48:54;;;;;;;;;;;;;;;1.75;100.00;101698.69;4966556;28;19914;-71
2022/12/04 08:51:21;;;;;;;;;;;;;;;1.64;100.00;101686.09;4966657;28;19910;-71
2022/12/04 08:53:46;;;;;;;;;;;;;;;1.71;100.00;101681.34;4966480;28;19996;-72
2022/12/04 08:56:12;;;;;;;;;;;;;;;1.83;100.00;101678.06;4966550;28;20383;-72
2022/12/04 08:58:37;;;;;;;;;;;;;;;1.92;100.00;101674.06;4966139;28;20632;-71
2022/12/04 09:01:04;;;;;;;;;;;;;;;1.99;100.00;101664.88;4966606;28;19942;-71
2022/12/04 09:03:29;;;;;;;;;;;;;;;1.98;100.00;101644.75;4966324;28;20537;-71
2022/12/04 09:05:57;;;;;;;;;;;;;;;2.00;100.00;101625.28;4966606;28;19914;-72
2022/12/04 09:08:22;;;;;;;;;;;;;;;1.94;100.00;101609.81;4966714;28;19953;-71
2022/12/04 09:10:47;;;;;;;;;;;;;;;1.90;100.00;101600.41;4966131;28;20428;-71
2022/12/04 09:13:12;;;;;;;;;;;;;;;1.81;100.00;101599.13;4967674;28;20656;-72
2022/12/04 09:15:38;;;;;;;;;;;;;;;1.68;100.00;101593.69;4969725;28;19914;-71
2022/12/04 09:18:04;;;;;;;;;;;;;;;1.85;100.00;101611.22;4970145;28;20032;-71
2022/12/04 09:20:29;;;;;;;;;;;;;;;1.94;100.00;101619.50;4968443;28;20013;-71
2022/12/04 09:22:54;;;;;;;;;;;;;;;1.90;100.00;101609.16;4970050;28;20331;-71
2022/12/04 09:25:19;;;;;;;;;;;;;;;1.97;100.00;101616.72;4952590;28;19976;-71
2022/12/04 09:27:45;;;;;;;;;;;;;;;2.00;100.00;101620.03;4969674;28;20392;-71
2022/12/04 09:30:10;;;;;;;;;;;;;;;1.90;100.00;101600.41;4969779;28;19921;-72
2022/12/04 09:32:36;;;;;;;;;;;;;;;1.94;100.00;101615.09;4969679;28;19914;-71
2022/12/04 09:35:01;;;;;;;;;;;;;;;2.04;100.00;101621.56;4969610;28;19922;-71
2022/12/04 09:37:27;;;;;;;;;;;;;;;2.14;100.00;101626.31;4969527;28;19968;-71
2022/12/04 09:39:52;;;;;;;;;;;;;;;2.27;100.00;101625.53;4968651;28;19957;-72
2022/12/04 09:42:36;;;;;;;;;;;;;;;2.35;100.00;101625.09;4969355;28;19913;-71
2022/12/04 09:45:07;;;;;;;;;;;;;;;2.36;100.00;101613.59;4969465;28;20789;-72
2022/12/04 09:47:35;;;;;;;;;;;;;;;2.52;100.00;101610.94;4969100;28;20395;-72
2022/12/04 09:50:12;;;;;;;;;;;;;;;2.43;100.00;101585.94;4969413;28;19922;-71
2022/12/04 09:52:37;;;;;;;;;;;;;;;2.48;100.00;101573.38;4968589;28;20295;-72
2022/12/04 09:55:04;;;;;;;;;;;;;;;2.41;100.00;101556.22;4967942;28;19921;-71
2022/12/04 09:57:38;;;;;;;;;;;;;;;2.29;100.00;101538.47;4969056;28;19918;-72
2022/12/04 10:00:04;;;;;;;;;;;;;;;2.47;100.00;101557.63;4945136;28;19914;-72
2022/12/04 10:02:40;;;;;;;;;;;;;;;2.54;100.00;101554.53;4968838;28;19920;-72
2022/12/04 10:05:06;;;;;;;;;;;;;;;2.64;100.00;101541.66;4968969;28;19961;-72
2022/12/04 10:07:38;;;;;;;;;;;;;;;2.72;100.00;101533.31;4968879;28;19941;-72
2022/12/04 10:10:22;;;;;;;;;;;;;;;2.92;100.00;101551.38;4967802;28;20004;-72
2022/12/04 10:12:52;;;;;;;;;;;;;;;3.01;100.00;101543.88;4968674;28;20021;-71
2022/12/04 10:15:37;;;;;;;;;;;;;;;3.13;100.00;101540.47;4967733;28;19928;-72
2022/12/04 10:18:03;;;;;;;;;;;;;;;3.15;100.00;101520.13;4961711;28;19914;-71
2022/12/04 10:20:28;;;;;;;;;;;;;;;3.14;100.00;101490.25;4968465;28;20282;-72
2022/12/04 10:22:55;;;;;;;;;;;;;;;3.04;100.00;101457.44;4967365;28;19920;-71
2022/12/04 10:25:21;;;;;;;;;;;;;;;3.05;100.00;101440.69;4967700;28;19914;-72
2022/12/04 10:28:01;;;;;;;;;;;;;;;3.14;100.00;101452.47;4966724;28;19914;-72
2022/12/04 10:30:31;;;;;;;;;;;;;;;3.22;100.00;101452.81;4968258;28;19925;-71
2022/12/04 10:33:14;;;;;;;;;;;;;;;3.08;100.00;101421.19;4959815;28;19918;-72
2022/12/04 10:35:42;;;;;;;;;;;;;;;3.16;100.00;101434.72;4968220;28;19926;-72
2022/12/04 10:38:19;;;;;;;;;;;;;;;3.11;100.00;101418.34;4968448;28;20390;-71
2022/12/04 10:40:54;;;;;;;;;;;;;;;3.35;100.00;101479.28;4966844;28;19925;-72
2022/12/04 10:43:33;;;;;;;;;;;;;;;3.57;100.00;101542.13;4968331;28;19918;-72
2022/12/04 10:45:58;;;;;;;;;;;;;;;3.52;100.00;101501.97;4960722;28;19914;-72
2022/12/04 10:48:31;;;;;;;;;;;;;;;3.44;100.00;101441.75;4966906;28;19937;-72
2022/12/04 10:50:56;;;;;;;;;;;;;;;3.40;100.00;101419.13;4967760;28;19943;-71
2022/12/04 10:53:28;;;;;;;;;;;;;;;3.40;100.00;101403.28;4968144;28;20529;-72
2022/12/04 10:55:53;;;;;;;;;;;;;;;3.31;100.00;101390.69;4966690;28;19918;-72
2022/12/04 10:58:19;;;;;;;;;;;;;;;3.28;100.00;101382.97;4968073;28;19924;-72
2022/12/04 11:00:55;;;;;;;;;;;;;;;3.34;100.00;101393.94;4967680;28;20356;-72
2022/12/04 11:03:23;;;;;;;;;;;;;;;3.18;100.00;101372.16;4968001;28;19914;-72
2022/12/04 11:05:59;;;;;;;;;;;;;;;3.44;100.00;101417.09;4967367;28;20344;-72
2022/12/04 11:08:26;;;;;;;;;;;;;;;3.50;100.00;101420.19;4966441;28;19921;-72
2022/12/04 11:11:00;;;;;;;;;;;;;;;3.59;100.00;101422.25;4967483;28;19953;-72
2022/12/04 11:13:25;;;;;;;;;;;;;;;3.61;100.00;101414.22;4967596;28;19961;-72
2022/12/04 11:15:52;;;;;;;;;;;;;;;3.65;100.00;101407.78;4967613;28;19929;-72
2022/12/04 11:18:19;;;;;;;;;;;;;;;3.73;100.00;101408.13;4967648;28;19918;-72
2022/12/04 11:20:52;;;;;;;;;;;;;;;3.76;100.00;101394.72;4965910;28;19913;-72
2022/12/04 11:23:18;;;;;;;;;;;;;;;3.50;100.00;101334.88;4966303;28;19913;-72
2022/12/04 11:25:45;;;;;;;;;;;;;;;3.61;100.00;101366.69;4965933;28;19960;-73
2022/12/04 11:28:14;;;;;;;;;;;;;;;3.51;100.00;101345.34;4966342;28;19914;-72
2022/12/04 11:30:39;;;;;;;;;;;;;;;3.62;100.00;101354.34;4966717;28;19968;-73
2022/12/04 11:33:13;;;;;;;;;;;;;;;3.58;100.00;101336.06;4967589;28;20657;-71
2022/12/04 11:35:38;;;;;;;;;;;;;;;3.67;100.00;101360.16;4966839;28;19918;-73
2022/12/04 11:38:14;;;;;;;;;;;;;;;3.72;100.00;101371.25;4966298;28;19917;-72
2022/12/04 11:40:47;;;;;;;;;;;;;;;3.75;100.00;101360.50;4967068;28;20415;-73
2022/12/04 11:43:13;;;;;;;;;;;;;;;3.81;100.00;101387.31;4966984;28;20259;-72
2022/12/04 11:45:39;;;;;;;;;;;;;;;3.60;100.00;101330.66;4967128;28;19914;-72
2022/12/04 11:48:20;;;;;;;;;;;;;;;3.73;100.00;101352.66;4966295;28;19937;-73
2022/12/04 11:50:51;;;;;;;;;;;;;;;3.65;100.00;101327.72;4966901;28;20031;-72
2022/12/04 11:53:22;;;;;;;;;;;;;;;3.75;100.00;101348.13;4966407;28;19922;-72
2022/12/04 11:56:00;;;;;;;;;;;;;;;3.75;100.00;101339.38;4967148;28;19925;-73
2022/12/04 11:58:34;;;;;;;;;;;;;;;3.76;100.00;101330.47;4965829;28;19957;-72
2022/12/04 12:01:16;;;;;;;;;;;;;;;3.64;100.00;101321.59;4959165;28;20021;-72
2022/12/04 12:04:01;;;;;;;;;;;;;;;3.61;100.00;101316.53;4965739;28;20011;-73
2022/12/04 12:06:33;;;;;;;;;;;;;;;3.64;100.00;101331.31;4965554;28;19924;-72
2022/12/04 12:09:09;;;;;;;;;;;;;;;3.64;100.00;101333.97;4958638;28;19954;-72
2022/12/04 12:11:41;;;;;;;;;;;;;;;3.59;100.00;101328.97;4965132;28;19944;-73
2022/12/04 12:14:07;;;;;;;;;;;;;;;3.62;100.00;101330.56;4965692;28;19922;-73
2022/12/04 12:16:54;;;;;;;;;;;;;;;3.63;100.00;101348.97;4966653;28;19910;-73
2022/12/04 12:19:27;;;;;;;;;;;;;;;3.64;100.00;101363.84;4961962;28;20373;-73
2022/12/04 12:22:01;;;;;;;;;;;;;;;3.68;100.00;101385.63;4966770;28;19968;-72
2022/12/04 12:24:34;;;;;;;;;;;;;;;3.63;100.00;101388.56;4967014;28;20358;-72
2022/12/04 12:27:16;;;;;;;;;;;;;;;3.63;100.00;101388.56;4965030;28;19914;-72
2022/12/04 12:30:00;;;;;;;;;;;;;;;3.68;100.00;101402.31;4966583;28;19917;-71
2022/12/04 12:32:53;;;;;;;;;;;;;;;3.77;100.00;101425.47;4965222;28;19969;-71
2022/12/04 12:35:26;;;;;;;;;;;;;;;3.80;100.00;101419.13;4961850;28;19918;-72
2022/12/04 12:37:53;;;;;;;;;;;;;;;3.80;100.00;101417.34;4965276;28;20761;-71
2022/12/04 12:40:37;;;;;;;;;;;;;;;3.78;100.00;101419.22;4966930;28;19945;-72
2022/12/04 12:43:08;;;;;;;;;;;;;;;3.77;100.00;101425.47;4966403;28;19913;-71
2022/12/04 12:45:44;;;;;;;;;;;;;;;3.75;100.00;101419.44;4965717;28;19914;-72
2022/12/04 12:48:17;;;;;;;;;;;;;;;3.76;100.00;101428.22;4967334;28;20395;-72
2022/12/04 12:50:46;;;;;;;;;;;;;;;3.79;100.00;101446.47;4968562;28;19922;-72